createdAt,value
2023-03-18T00:00:11.953Z,13.74
2023-03-18T00:02:40.404Z,13.72
2023-03-18T00:05:08.915Z,13.69
2023-03-18T00:07:37.315Z,13.66
2023-03-18T00:10:06.324Z,13.63
2023-03-18T00:12:33.154Z,13.61
2023-03-18T00:15:00.911Z,13.57
2023-03-18T00:17:27.669Z,13.54
2023-03-18T00:19:55.257Z,13.52
2023-03-18T00:22:21.911Z,13.50
2023-03-18T00:24:49.006Z,13.48
2023-03-18T00:27:16.075Z,13.46
2023-03-18T00:29:42.844Z,13.43
2023-03-18T00:32:09.921Z,13.43
2023-03-18T00:34:36.545Z,13.43
2023-03-18T00:37:03.616Z,13.41
2023-03-18T00:39:33.042Z,13.40
2023-03-18T00:42:08.112Z,13.40
2023-03-18T00:44:34.670Z,13.39
2023-03-18T00:47:01.468Z,13.38
2023-03-18T00:49:28.391Z,13.38
2023-03-18T00:51:54.979Z,13.38
2023-03-18T00:54:22.454Z,13.37
2023-03-18T00:56:49.698Z,13.38
2023-03-18T00:59:16.643Z,13.39
2023-03-18T01:01:43.337Z,13.38
2023-03-18T01:04:10.487Z,13.38
2023-03-18T01:06:38.556Z,13.38
2023-03-18T01:09:08.893Z,13.38
2023-03-18T01:11:36.160Z,13.38
2023-03-18T01:14:03.713Z,13.37
2023-03-18T01:16:30.523Z,13.36
2023-03-18T01:18:57.421Z,13.35
2023-03-18T01:21:24.169Z,13.33
2023-03-18T01:23:53.454Z,13.32
2023-03-18T01:26:20.081Z,13.31
2023-03-18T01:28:47.264Z,13.29
2023-03-18T01:31:13.898Z,13.28
2023-03-18T01:33:41.493Z,13.27
2023-03-18T01:36:08.822Z,13.28
2023-03-18T01:38:35.536Z,13.25
2023-03-18T01:41:02.496Z,13.25
2023-03-18T01:43:33.786Z,13.22
2023-03-18T01:46:02.517Z,13.20
2023-03-18T01:48:33.180Z,13.19
2023-03-18T01:51:05.312Z,13.19
2023-03-18T01:53:36.647Z,13.16
2023-03-18T01:56:03.921Z,13.18
2023-03-18T01:58:36.700Z,13.14
2023-03-18T02:01:20.055Z,13.12
2023-03-18T02:03:48.231Z,13.16
2023-03-18T02:06:14.777Z,13.16
2023-03-18T02:08:41.242Z,13.15
2023-03-18T02:11:10.181Z,13.15
2023-03-18T02:13:42.516Z,13.15
2023-03-18T02:16:21.734Z,13.14
2023-03-18T02:18:51.927Z,13.16
2023-03-18T02:21:40.721Z,13.15
2023-03-18T02:24:24.655Z,13.21
2023-03-18T02:27:17.003Z,13.15
2023-03-18T02:29:44.530Z,13.20
2023-03-18T02:32:12.339Z,13.17
2023-03-18T02:34:40.830Z,13.18
2023-03-18T02:37:11.295Z,13.18
2023-03-18T02:39:37.716Z,13.18
2023-03-18T02:42:04.267Z,13.16
2023-03-18T02:44:31.478Z,13.16
2023-03-18T02:47:02.870Z,13.14
2023-03-18T02:49:30.200Z,13.17
2023-03-18T02:51:56.839Z,13.18
2023-03-18T02:54:27.484Z,13.17
2023-03-18T02:56:54.350Z,13.19
2023-03-18T02:59:21.934Z,13.19
2023-03-18T03:01:51.491Z,13.20
2023-03-18T03:04:21.692Z,13.21
2023-03-18T03:06:48.125Z,13.21
2023-03-18T03:09:16.489Z,13.21
2023-03-18T03:11:45.199Z,13.22
2023-03-18T03:14:12.839Z,13.24
2023-03-18T03:16:39.276Z,13.25
2023-03-18T03:19:06.281Z,13.23
2023-03-18T03:21:35.761Z,13.25
2023-03-18T03:24:06.053Z,13.23
2023-03-18T03:26:33.647Z,13.25
2023-03-18T03:29:00.559Z,13.26
2023-03-18T03:31:27.340Z,13.25
2023-03-18T03:33:53.849Z,13.26
2023-03-18T03:36:20.331Z,13.27
2023-03-18T03:38:47.015Z,13.26
2023-03-18T03:41:13.742Z,13.23
2023-03-18T03:43:41.288Z,13.21
2023-03-18T03:46:09.547Z,13.19
2023-03-18T03:48:36.940Z,13.18
2023-03-18T03:51:03.726Z,13.14
2023-03-18T03:53:30.158Z,13.13
2023-03-18T03:55:59.081Z,13.11
2023-03-18T03:58:26.310Z,13.11
2023-03-18T04:00:52.778Z,13.09
2023-03-18T04:03:19.634Z,13.08
2023-03-18T04:05:46.108Z,13.09
2023-03-18T04:08:12.544Z,13.10
2023-03-18T04:10:39.241Z,13.09
2023-03-18T04:13:07.261Z,13.12
2023-03-18T04:15:34.166Z,13.12
2023-03-18T04:18:06.533Z,13.15
2023-03-18T04:20:34.721Z,13.15
2023-03-18T04:23:01.354Z,13.17
2023-03-18T04:25:27.849Z,13.16
2023-03-18T04:27:54.309Z,13.19
2023-03-18T04:30:23.184Z,13.19
2023-03-18T04:32:50.389Z,13.18
2023-03-18T04:35:17.074Z,13.18
2023-03-18T04:37:44.607Z,13.19
2023-03-18T04:40:12.176Z,13.21
2023-03-18T04:42:39.681Z,13.23
2023-03-18T04:45:06.895Z,13.24
2023-03-18T04:47:35.073Z,13.26
2023-03-18T04:50:02.373Z,13.26
2023-03-18T04:52:28.770Z,13.27
2023-03-18T04:54:55.514Z,13.27
2023-03-18T04:57:22.189Z,13.28
2023-03-18T04:59:48.667Z,13.28
2023-03-18T05:02:15.547Z,13.27
2023-03-18T05:04:42.065Z,13.27
2023-03-18T05:07:10.667Z,13.28
2023-03-18T05:09:37.106Z,13.27
2023-03-18T05:12:04.356Z,13.27
2023-03-18T05:14:31.105Z,13.25
2023-03-18T05:16:57.592Z,13.24
2023-03-18T05:19:25.177Z,13.24
2023-03-18T05:21:51.609Z,13.22
2023-03-18T05:24:18.070Z,13.22
2023-03-18T05:26:44.722Z,13.21
2023-03-18T05:29:11.660Z,13.21
2023-03-18T05:31:38.202Z,13.20
2023-03-18T05:34:06.793Z,13.18
2023-03-18T05:36:33.559Z,13.18
2023-03-18T05:39:00.027Z,13.16
2023-03-18T05:41:26.507Z,13.15
2023-03-18T05:43:52.898Z,13.14
2023-03-18T05:46:19.359Z,13.13
2023-03-18T05:48:45.800Z,13.12
2023-03-18T05:51:12.638Z,13.12
2023-03-18T05:53:39.357Z,13.11
2023-03-18T05:56:05.994Z,13.12
2023-03-18T05:58:32.613Z,13.13
2023-03-18T06:01:00.101Z,13.13
2023-03-18T06:03:27.569Z,13.13
2023-03-18T06:05:54.557Z,13.14
2023-03-18T06:08:21.203Z,13.13
2023-03-18T06:10:48.405Z,13.14
2023-03-18T06:13:15.187Z,13.14
2023-03-18T06:15:41.755Z,13.14
2023-03-18T06:18:08.285Z,13.12
2023-03-18T06:20:35.497Z,13.12
2023-03-18T06:23:02.279Z,13.11
2023-03-18T06:25:28.987Z,13.11
2023-03-18T06:27:55.389Z,13.10
2023-03-18T06:30:22.189Z,13.11
2023-03-18T06:32:48.683Z,13.11
2023-03-18T06:35:16.451Z,13.11
2023-03-18T06:37:43.975Z,13.12
2023-03-18T06:40:12.134Z,13.13
2023-03-18T06:42:39.185Z,13.13
2023-03-18T06:45:06.215Z,13.14
2023-03-18T06:47:32.877Z,13.13
2023-03-18T06:49:59.222Z,13.12
2023-03-18T06:52:26.467Z,13.09
2023-03-18T06:54:53.420Z,13.06
2023-03-18T06:57:20.361Z,13.03
2023-03-18T06:59:47.911Z,13.01
2023-03-18T07:02:15.416Z,13.00
2023-03-18T07:04:42.453Z,12.99
2023-03-18T07:07:09.006Z,12.98
2023-03-18T07:09:36.258Z,12.97
2023-03-18T07:12:02.648Z,12.99
2023-03-18T07:14:29.112Z,13.00
2023-03-18T07:16:56.012Z,13.04
2023-03-18T07:19:22.828Z,13.05
2023-03-18T07:21:49.486Z,13.08
2023-03-18T07:24:17.179Z,13.11
2023-03-18T07:26:44.068Z,13.16
2023-03-18T07:31:49.657Z,13.25
2023-03-18T07:34:17.803Z,13.32
2023-03-18T07:36:45.160Z,13.36
2023-03-18T07:39:12.349Z,13.41
2023-03-18T07:41:39.064Z,13.46
2023-03-18T07:44:07.730Z,13.50
2023-03-18T07:46:34.396Z,13.57
2023-03-18T07:49:01.225Z,13.61
2023-03-18T07:51:27.848Z,13.64
2023-03-18T07:53:54.369Z,13.67
2023-03-18T07:56:21.329Z,13.68
2023-03-18T07:58:48.069Z,13.68
2023-03-18T08:01:18.332Z,13.70
2023-03-18T08:03:46.531Z,13.70
2023-03-18T08:06:15.340Z,13.70
2023-03-18T08:08:43.048Z,13.75
2023-03-18T08:11:10.297Z,13.81
2023-03-18T08:13:37.741Z,13.84
2023-03-18T08:16:04.826Z,13.90
2023-03-18T08:18:31.375Z,13.96
2023-03-18T08:20:58.059Z,14.02
2023-03-18T08:23:25.236Z,14.05
2023-03-18T08:25:52.539Z,14.12
2023-03-18T08:28:19.809Z,14.14
2023-03-18T08:30:46.866Z,14.19
2023-03-18T08:33:13.589Z,14.23
2023-03-18T08:35:43.967Z,14.26
2023-03-18T08:38:10.466Z,14.31
2023-03-18T08:40:37.092Z,14.37
2023-03-18T08:43:03.890Z,14.42
2023-03-18T08:45:30.577Z,14.49
2023-03-18T08:47:57.246Z,14.56
2023-03-18T08:50:28.472Z,14.65
2023-03-18T08:52:59.913Z,14.75
2023-03-18T08:55:39.935Z,14.82
2023-03-18T08:58:08.258Z,14.94
2023-03-18T09:00:37.714Z,14.99
2023-03-18T09:03:05.197Z,15.04
2023-03-18T09:05:32.973Z,15.05
2023-03-18T09:08:00.357Z,15.07
2023-03-18T09:10:27.530Z,15.07
2023-03-18T09:12:54.053Z,15.07
2023-03-18T09:15:20.732Z,15.06
2023-03-18T09:18:00.416Z,15.05
2023-03-18T09:20:30.557Z,15.06
2023-03-18T09:22:57.551Z,15.05
2023-03-18T09:25:24.710Z,15.05
2023-03-18T09:27:51.901Z,15.07
2023-03-18T09:30:19.187Z,15.12
2023-03-18T09:32:45.852Z,15.16
2023-03-18T09:35:13.412Z,15.23
2023-03-18T09:37:40.641Z,15.31
2023-03-18T09:40:08.644Z,15.38
2023-03-18T09:42:55.389Z,15.41
2023-03-18T09:45:27.509Z,15.53
2023-03-18T09:48:09.669Z,15.58
2023-03-18T09:50:45.146Z,15.67
2023-03-18T09:53:20.698Z,15.74
2023-03-18T09:55:58.965Z,15.83
2023-03-18T09:59:07.741Z,15.88
2023-03-18T10:01:39.326Z,15.97
2023-03-18T10:04:28.635Z,15.98
2023-03-18T10:07:01.989Z,16.09
2023-03-18T10:09:39.791Z,16.19
2023-03-18T10:12:23.910Z,16.32
2023-03-18T10:15:02.041Z,16.45
2023-03-18T10:17:38.834Z,16.56
2023-03-18T10:20:15.579Z,16.65
2023-03-18T10:23:01.932Z,16.67
2023-03-18T10:25:46.968Z,16.74
2023-03-18T10:28:50.686Z,16.79
2023-03-18T10:31:26.442Z,16.86
2023-03-18T10:34:23.815Z,16.92
2023-03-18T10:37:38.348Z,16.99
2023-03-18T10:40:17.179Z,17.09
2023-03-18T10:42:44.748Z,17.21
2023-03-18T10:45:28.173Z,17.26
2023-03-18T10:48:06.253Z,17.36
2023-03-18T10:50:37.198Z,17.49
2023-03-18T10:53:21.778Z,17.53
2023-03-18T10:56:07.012Z,17.60
2023-03-18T10:58:34.345Z,17.65
2023-03-18T11:01:01.115Z,17.66
2023-03-18T11:03:33.116Z,17.66
2023-03-18T11:06:04.225Z,17.74
2023-03-18T11:08:34.482Z,17.81
2023-03-18T11:11:17.559Z,17.85
2023-03-18T11:13:55.952Z,17.90
2023-03-18T11:16:47.129Z,17.86
2023-03-18T11:19:41.803Z,17.89
2023-03-18T11:22:19.460Z,18.04
2023-03-18T11:24:46.163Z,18.25
2023-03-18T11:27:18.359Z,18.38
2023-03-18T11:29:53.688Z,18.48
2023-03-18T11:33:02.757Z,18.53
2023-03-18T11:35:39.491Z,18.64
2023-03-18T11:38:07.584Z,18.70
2023-03-18T11:40:34.478Z,18.71
2023-03-18T11:43:16.706Z,18.69
2023-03-18T11:45:48.961Z,18.89
2023-03-18T11:48:22.797Z,19.28
2023-03-18T11:51:19.289Z,19.80
2023-03-18T11:53:52.619Z,20.30
2023-03-18T11:56:35.158Z,20.55
2023-03-18T11:59:10.730Z,20.71
2023-03-18T12:02:02.241Z,20.67
2023-03-18T12:04:31.494Z,20.60
2023-03-18T12:07:01.371Z,20.46
2023-03-18T12:10:24.358Z,20.38
2023-03-18T12:13:15.258Z,20.78
2023-03-18T12:16:03.865Z,21.38
2023-03-18T12:19:05.589Z,22.13
2023-03-18T12:21:44.572Z,22.89
2023-03-18T12:24:19.057Z,23.50
2023-03-18T12:26:51.571Z,23.97
2023-03-18T12:29:42.400Z,24.35
2023-03-18T12:32:21.356Z,24.80
2023-03-18T12:35:03.540Z,25.15
2023-03-18T12:38:02.110Z,25.41
2023-03-18T12:40:34.007Z,25.57
2023-03-18T12:43:19.246Z,25.45
2023-03-18T12:45:49.591Z,25.24
2023-03-18T12:48:42.673Z,24.87
2023-03-18T12:51:14.976Z,24.46
2023-03-18T12:53:49.071Z,24.01
2023-03-18T12:56:30.141Z,23.59
2023-03-18T12:59:15.467Z,23.41
2023-03-18T13:01:53.285Z,23.41
2023-03-18T13:04:23.241Z,23.59
2023-03-18T13:07:14.641Z,23.81
2023-03-18T13:09:48.751Z,24.25
2023-03-18T13:12:27.323Z,24.69
2023-03-18T13:15:04.718Z,25.05
2023-03-18T13:17:44.624Z,25.18
2023-03-18T13:20:26.961Z,25.06
2023-03-18T13:23:06.826Z,24.83
2023-03-18T13:25:44.827Z,24.54
2023-03-18T13:28:11.328Z,24.23
2023-03-18T13:31:04.542Z,23.81
2023-03-18T13:33:30.896Z,23.60
2023-03-18T13:36:06.392Z,23.30
2023-03-18T13:38:50.300Z,23.01
2023-03-18T13:41:38.446Z,22.81
2023-03-18T13:44:12.800Z,22.82
2023-03-18T13:46:41.193Z,23.12
2023-03-18T13:49:18.958Z,23.53
2023-03-18T13:51:52.335Z,24.11
2023-03-18T13:54:20.483Z,24.71
2023-03-18T13:56:52.985Z,25.33
2023-03-18T13:59:34.543Z,25.99
2023-03-18T14:02:25.504Z,26.57
2023-03-18T14:04:53.127Z,27.00
2023-03-18T14:07:21.507Z,27.17
2023-03-18T14:09:52.532Z,27.01
2023-03-18T14:12:28.674Z,26.57
2023-03-18T14:15:02.545Z,26.06
2023-03-18T14:17:38.502Z,25.40
2023-03-18T14:20:17.652Z,24.83
2023-03-18T14:22:46.070Z,24.39
2023-03-18T14:25:20.040Z,23.91
2023-03-18T14:28:14.571Z,23.57
2023-03-18T14:30:54.677Z,23.53
2023-03-18T14:33:21.768Z,23.75
2023-03-18T14:36:10.113Z,24.08
2023-03-18T14:39:02.865Z,24.44
2023-03-18T14:41:32.570Z,24.68
2023-03-18T14:44:21.843Z,24.69
2023-03-18T14:46:51.675Z,24.62
2023-03-18T14:49:47.275Z,24.36
2023-03-18T14:52:22.596Z,24.15
2023-03-18T14:54:52.462Z,23.88
2023-03-18T14:57:22.246Z,23.58
2023-03-18T14:59:48.656Z,23.33
2023-03-18T15:02:26.042Z,23.06
2023-03-18T15:04:55.269Z,22.86
2023-03-18T15:07:37.032Z,22.64
2023-03-18T15:10:10.394Z,22.44
2023-03-18T15:12:37.485Z,22.25
2023-03-18T15:15:12.753Z,22.03
2023-03-18T15:17:39.456Z,21.89
2023-03-18T15:20:06.608Z,21.78
2023-03-18T15:22:34.707Z,21.67
2023-03-18T15:25:04.471Z,21.60
2023-03-18T15:27:33.910Z,21.54
2023-03-18T15:30:02.564Z,21.53
2023-03-18T15:32:44.839Z,21.49
2023-03-18T15:35:11.315Z,21.50
2023-03-18T15:37:41.027Z,21.46
2023-03-18T15:40:22.393Z,21.40
2023-03-18T15:42:49.544Z,21.38
2023-03-18T15:45:20.257Z,21.31
2023-03-18T15:47:47.425Z,21.27
2023-03-18T15:50:25.438Z,21.17
2023-03-18T15:53:03.039Z,21.06
2023-03-18T15:55:37.298Z,21.02
2023-03-18T15:58:15.515Z,20.92
2023-03-18T16:00:41.957Z,20.82
2023-03-18T16:03:23.923Z,20.66
2023-03-18T16:05:52.049Z,20.60
2023-03-18T16:08:20.979Z,20.50
2023-03-18T16:10:49.958Z,20.40
2023-03-18T16:13:24.383Z,20.30
2023-03-18T16:15:52.567Z,20.25
2023-03-18T16:18:21.006Z,20.17
2023-03-18T16:20:48.739Z,20.10
2023-03-18T16:23:16.940Z,20.02
2023-03-18T16:25:45.647Z,19.96
2023-03-18T16:28:18.310Z,19.89
2023-03-18T16:30:44.857Z,19.84
2023-03-18T16:33:14.490Z,19.77
2023-03-18T16:35:41.237Z,19.72
2023-03-18T16:38:16.356Z,19.63
2023-03-18T16:40:43.965Z,19.57
2023-03-18T16:43:19.144Z,19.45
2023-03-18T16:45:47.178Z,19.38
2023-03-18T16:48:17.322Z,19.28
2023-03-18T16:50:47.340Z,19.20
2023-03-18T16:53:22.581Z,19.09
2023-03-18T16:55:52.678Z,18.91
2023-03-18T16:58:25.201Z,18.67
2023-03-18T17:00:51.672Z,18.44
2023-03-18T17:03:19.172Z,18.15
2023-03-18T17:05:50.189Z,17.88
2023-03-18T17:08:18.392Z,17.61
2023-03-18T17:10:45.940Z,17.40
2023-03-18T17:13:18.983Z,17.19
2023-03-18T17:15:45.530Z,17.09
2023-03-18T17:18:20.471Z,16.99
2023-03-18T17:20:47.990Z,16.92
2023-03-18T17:23:18.951Z,16.82
2023-03-18T17:25:49.325Z,16.75
2023-03-18T17:28:22.527Z,16.68
2023-03-18T17:30:51.020Z,16.65
2023-03-18T17:33:30.912Z,16.56
2023-03-18T17:35:58.640Z,16.57
2023-03-18T17:38:25.813Z,16.56
2023-03-18T17:40:53.198Z,16.49
2023-03-18T17:43:28.788Z,16.41
2023-03-18T17:45:57.346Z,16.38
2023-03-18T17:48:26.297Z,16.32
2023-03-18T17:50:55.799Z,16.27
2023-03-18T17:53:26.020Z,16.20
2023-03-18T17:55:54.546Z,16.14
2023-03-18T17:58:23.540Z,16.09
2023-03-18T18:00:51.672Z,16.05
2023-03-18T18:03:27.089Z,15.99
2023-03-18T18:05:54.691Z,15.99
2023-03-18T18:08:22.818Z,15.95
2023-03-18T18:10:50.184Z,15.89
2023-03-18T18:13:21.585Z,15.83
2023-03-18T18:15:51.440Z,15.79
2023-03-18T18:18:25.238Z,15.73
2023-03-18T18:20:56.884Z,15.68
2023-03-18T18:23:28.783Z,15.65
2023-03-18T18:26:00.763Z,15.64
2023-03-18T18:28:36.103Z,15.60
2023-03-18T18:31:04.301Z,15.62
2023-03-18T18:33:32.138Z,15.60
2023-03-18T18:35:59.137Z,15.59
2023-03-18T18:38:25.834Z,15.58
2023-03-18T18:40:53.612Z,15.54
2023-03-18T18:43:21.466Z,15.50
2023-03-18T18:45:49.429Z,15.47
2023-03-18T18:48:17.888Z,15.41
2023-03-18T18:50:45.520Z,15.37
2023-03-18T18:53:26.008Z,15.27
2023-03-18T18:55:54.493Z,15.26
2023-03-18T18:58:26.513Z,15.18
2023-03-18T19:00:52.959Z,15.14
2023-03-18T19:03:22.267Z,15.07
2023-03-18T19:05:54.498Z,15.01
2023-03-18T19:08:34.158Z,14.94
2023-03-18T19:11:05.582Z,14.90
2023-03-18T19:13:34.130Z,14.84
2023-03-18T19:16:03.861Z,14.78
2023-03-18T19:18:40.948Z,14.68
2023-03-18T19:21:08.039Z,14.66
2023-03-18T19:23:35.513Z,14.58
2023-03-18T19:26:03.940Z,14.51
2023-03-18T19:28:57.783Z,14.46
2023-03-18T19:31:27.106Z,14.41
2023-03-18T19:33:54.382Z,14.36
2023-03-18T19:36:23.630Z,14.30
2023-03-18T19:38:51.168Z,14.26
2023-03-18T19:41:17.625Z,14.22
2023-03-18T19:43:44.236Z,14.17
2023-03-18T19:46:18.100Z,14.10
2023-03-18T19:48:44.970Z,14.11
2023-03-18T19:51:15.318Z,14.07
2023-03-18T19:53:46.308Z,14.03
2023-03-18T19:56:27.304Z,13.99
2023-03-18T19:58:57.067Z,14.02
2023-03-18T20:01:24.842Z,13.99
2023-03-18T20:03:58.149Z,13.97
2023-03-18T20:06:25.337Z,13.99
2023-03-18T20:08:51.940Z,13.99
2023-03-18T20:11:22.976Z,13.98
2023-03-18T20:13:49.720Z,13.98
2023-03-18T20:16:17.877Z,13.99
2023-03-18T20:18:44.603Z,14.00
2023-03-18T20:21:27.171Z,13.98
2023-03-18T20:23:56.058Z,14.03
2023-03-18T20:26:23.057Z,14.04
2023-03-18T20:28:53.779Z,14.05
2023-03-18T20:31:20.702Z,14.05
2023-03-18T20:33:47.397Z,14.05
2023-03-18T20:36:17.766Z,14.03
2023-03-18T20:38:47.556Z,14.05
2023-03-18T20:41:19.150Z,14.02
2023-03-18T20:43:49.300Z,14.01
2023-03-18T20:46:17.096Z,13.99
2023-03-18T20:48:44.792Z,13.95
2023-03-18T20:51:24.489Z,13.90
2023-03-18T20:53:50.961Z,13.90
2023-03-18T20:56:22.420Z,13.87
2023-03-18T20:58:49.885Z,13.86
2023-03-18T21:01:18.309Z,13.84
2023-03-18T21:03:45.342Z,13.82
2023-03-18T21:06:15.009Z,13.79
2023-03-18T21:08:42.061Z,13.78
2023-03-18T21:11:27.146Z,13.70
2023-03-18T21:13:53.747Z,13.72
2023-03-18T21:16:21.152Z,13.70
2023-03-18T21:18:49.547Z,13.66
2023-03-18T21:21:25.696Z,13.62
2023-03-18T21:23:53.866Z,13.60
2023-03-18T21:26:23.353Z,13.58
2023-03-18T21:28:50.589Z,13.55
2023-03-18T21:31:27.103Z,13.52
2023-03-18T21:33:55.317Z,13.52
2023-03-18T21:36:22.516Z,13.51
2023-03-18T21:38:49.470Z,13.50
2023-03-18T21:41:21.928Z,13.47
2023-03-18T21:43:49.471Z,13.49
2023-03-18T21:46:19.499Z,13.48
2023-03-18T21:48:46.428Z,13.48
2023-03-18T21:51:37.624Z,13.44
2023-03-18T21:54:05.956Z,13.48
2023-03-18T21:56:32.708Z,13.47
2023-03-18T21:58:59.477Z,13.46
2023-03-18T22:01:32.029Z,13.43
2023-03-18T22:03:58.797Z,13.45
2023-03-18T22:06:25.621Z,13.41
2023-03-18T22:08:52.146Z,13.39
2023-03-18T22:11:22.045Z,13.38
2023-03-18T22:13:49.395Z,13.38
2023-03-18T22:16:17.822Z,13.36
2023-03-18T22:18:46.429Z,13.34
2023-03-18T22:21:23.218Z,13.31
2023-03-18T22:23:49.884Z,13.32
2023-03-18T22:26:19.066Z,13.32
2023-03-18T22:28:46.435Z,13.32
2023-03-18T22:31:19.093Z,13.29
2023-03-18T22:33:46.430Z,13.32
2023-03-18T22:36:15.497Z,13.30
2023-03-18T22:38:42.262Z,13.30
2023-03-18T22:41:19.197Z,13.28
2023-03-18T22:43:46.298Z,13.30
2023-03-18T22:46:13.012Z,13.31
2023-03-18T22:48:39.643Z,13.31
2023-03-18T22:51:06.810Z,13.32
2023-03-18T22:53:36.972Z,13.31
2023-03-18T22:56:15.764Z,13.28
2023-03-18T22:58:42.479Z,13.31
2023-03-18T23:01:20.970Z,13.27
2023-03-18T23:03:47.722Z,13.31
2023-03-18T23:06:18.312Z,13.30
2023-03-18T23:08:45.665Z,13.28
2023-03-18T23:11:13.315Z,13.26
2023-03-18T23:13:44.922Z,13.24
2023-03-18T23:16:16.936Z,13.22
2023-03-18T23:18:44.093Z,13.22
2023-03-18T23:21:16.742Z,13.20
2023-03-18T23:23:43.511Z,13.20
2023-03-18T23:26:10.033Z,13.17
2023-03-18T23:28:44.577Z,13.13
2023-03-18T23:31:11.923Z,13.11
2023-03-18T23:33:38.695Z,13.07
2023-03-18T23:36:05.681Z,13.04
2023-03-18T23:38:32.259Z,13.01
2023-03-18T23:40:58.844Z,12.97
2023-03-18T23:43:25.829Z,12.93
2023-03-18T23:45:52.455Z,12.92
2023-03-18T23:48:19.014Z,12.91
2023-03-18T23:50:46.109Z,12.87
2023-03-18T23:53:12.694Z,12.87
2023-03-18T23:55:39.260Z,12.87
2023-03-18T23:58:05.876Z,12.87
